createdAt,value
2022-11-29T00:01:18.519Z,99684.03
2022-11-29T00:03:45.311Z,99683.06
2022-11-29T00:06:17.979Z,99680.56
2022-11-29T00:08:45.027Z,99682.22
2022-11-29T00:11:40.105Z,99679.69
2022-11-29T00:14:08.253Z,99677.94
2022-11-29T00:16:35.210Z,99679.69
2022-11-29T00:19:02.255Z,99683.06
2022-11-29T00:21:29.510Z,99683.06
2022-11-29T00:23:56.297Z,99679.50
2022-11-29T00:26:23.394Z,99682.13
2022-11-29T00:28:50.162Z,99675.97
2022-11-29T00:31:25.050Z,99676.84
2022-11-29T00:33:52.294Z,99679.34
2022-11-29T00:36:19.838Z,99682.72
2022-11-29T00:38:46.618Z,99679.34
2022-11-29T00:41:13.446Z,99671.56
2022-11-29T00:43:40.635Z,99677.53
2022-11-29T00:46:08.049Z,99682.00
2022-11-29T00:48:35.357Z,99682.00
2022-11-29T00:51:02.505Z,99683.69
2022-11-29T00:53:29.261Z,99681.25
2022-11-29T00:55:56.174Z,99686.44
2022-11-29T00:58:23.273Z,99685.59
2022-11-29T01:00:50.011Z,99678.63
2022-11-29T01:03:17.448Z,99681.16
2022-11-29T01:05:44.878Z,99684.63
2022-11-29T01:08:12.528Z,99690.75
2022-11-29T01:10:39.315Z,99687.28
2022-11-29T01:13:06.083Z,99690.88
2022-11-29T01:15:33.059Z,99694.25
2022-11-29T01:17:59.834Z,99695.94
2022-11-29T01:20:26.970Z,99689.81
2022-11-29T01:22:53.698Z,99692.44
2022-11-29T01:25:20.644Z,99700.38
2022-11-29T01:27:47.537Z,99695.81
2022-11-29T01:30:14.707Z,99699.41
2022-11-29T01:32:41.887Z,99698.47
2022-11-29T01:35:09.045Z,99695.81
2022-11-29T01:37:36.059Z,99688.00
2022-11-29T01:40:03.632Z,99703.59
2022-11-29T01:42:30.401Z,99694.84
2022-11-29T01:45:02.039Z,99690.66
2022-11-29T01:47:29.170Z,99699.28
2022-11-29T01:49:56.147Z,99698.22
2022-11-29T01:52:25.408Z,99704.34
2022-11-29T01:54:56.093Z,99697.50
2022-11-29T01:57:23.361Z,99687.91
2022-11-29T01:59:55.084Z,99686.19
2022-11-29T02:02:30.390Z,99703.94
2022-11-29T02:04:58.280Z,99701.94
2022-11-29T02:07:25.083Z,99699.41
2022-11-29T02:09:51.873Z,99693.19
2022-11-29T02:12:30.894Z,99697.72
2022-11-29T02:15:07.803Z,99695.94
2022-11-29T02:18:06.904Z,99695.34
2022-11-29T02:20:39.157Z,99701.09
2022-11-29T02:23:36.901Z,99701.44
2022-11-29T02:26:48.966Z,99699.88
2022-11-29T02:29:40.157Z,99700.63
2022-11-29T02:32:37.469Z,99697.84
2022-11-29T02:35:41.601Z,99693.53
2022-11-29T02:38:20.812Z,99699.63
2022-11-29T02:40:59.528Z,99695.81
2022-11-29T02:43:32.666Z,99692.94
2022-11-29T02:46:56.696Z,99694.47
2022-11-29T02:49:30.670Z,99693.38
2022-11-29T02:52:08.788Z,99705.66
2022-11-29T02:54:44.840Z,99703.50
2022-11-29T02:57:23.703Z,99704.69
2022-11-29T03:00:06.694Z,99697.38
2022-11-29T03:02:40.733Z,99699.16
2022-11-29T03:05:20.100Z,99702.88
2022-11-29T03:08:01.074Z,99700.72
2022-11-29T03:10:33.007Z,99706.97
2022-11-29T03:13:00.138Z,99708.66
2022-11-29T03:15:29.854Z,99707.81
2022-11-29T03:18:15.616Z,99719.09
2022-11-29T03:21:14.042Z,99712.38
2022-11-29T03:23:47.950Z,99720.28
2022-11-29T03:26:19.177Z,99716.56
2022-11-29T03:29:17.896Z,99723.06
2022-11-29T03:32:12.794Z,99718.84
2022-11-29T03:35:05.528Z,99720.66
2022-11-29T03:37:55.285Z,99722.94
2022-11-29T03:40:48.276Z,99718.63
2022-11-29T03:43:30.781Z,99723.16
2022-11-29T03:46:23.738Z,99727.63
2022-11-29T03:48:57.700Z,99727.28
2022-11-29T03:51:52.017Z,99727.28
2022-11-29T03:54:26.216Z,99733.38
2022-11-29T03:56:53.358Z,99735.78
2022-11-29T03:59:41.659Z,99737.09
2022-11-29T04:02:25.196Z,99736.84
2022-11-29T04:05:10.619Z,99740.56
2022-11-29T04:07:57.767Z,99740.56
2022-11-29T04:10:42.870Z,99734.13
2022-11-29T04:13:58.092Z,99739.16
2022-11-29T04:16:54.941Z,99733.72
2022-11-29T04:19:59.557Z,99739.75
2022-11-29T04:22:40.609Z,99738.06
2022-11-29T04:25:41.222Z,99742.38
2022-11-29T04:28:38.358Z,99743.13
2022-11-29T04:31:17.801Z,99744.06
2022-11-29T04:34:07.722Z,99744.19
2022-11-29T04:37:05.964Z,99747.66
2022-11-29T04:39:42.652Z,99757.25
2022-11-29T04:42:21.723Z,99762.19
2022-11-29T04:45:16.045Z,99757.38
2022-11-29T04:47:45.644Z,99767.47
2022-11-29T04:50:24.619Z,99762.44
2022-11-29T04:53:42.158Z,99760.03
2022-11-29T04:56:29.799Z,99761.59
2022-11-29T04:58:56.521Z,99775.28
2022-11-29T05:01:36.366Z,99769.88
2022-11-29T05:04:19.500Z,99776.13
2022-11-29T05:07:38.642Z,99775.63
2022-11-29T05:10:23.927Z,99779.09
2022-11-29T05:13:09.028Z,99786.69
2022-11-29T05:16:14.818Z,99786.94
2022-11-29T05:18:47.471Z,99789.22
2022-11-29T05:21:32.203Z,99794.84
2022-11-29T05:24:07.934Z,99795.59
2022-11-29T05:26:34.894Z,99791.75
2022-11-29T05:29:18.105Z,99790.91
2022-11-29T05:32:13.093Z,99795.69
2022-11-29T05:35:06.024Z,99801.69
2022-11-29T05:37:47.218Z,99797.16
2022-11-29T05:40:16.410Z,99798.72
2022-11-29T05:43:08.076Z,99803.50
2022-11-29T05:45:36.444Z,99800.50
2022-11-29T05:48:03.209Z,99798.81
2022-11-29T05:50:37.999Z,99802.66
2022-11-29T05:53:21.538Z,99811.44
2022-11-29T05:56:06.762Z,99807.81
2022-11-29T05:58:43.565Z,99814.56
2022-11-29T06:01:28.857Z,99817.41
2022-11-29T06:04:28.741Z,99819.94
2022-11-29T06:07:03.287Z,99821.53
2022-11-29T06:09:48.781Z,99823.31
2022-11-29T06:12:23.815Z,99826.91
2022-11-29T06:14:57.094Z,99833.66
2022-11-29T06:17:48.773Z,99831.50
2022-11-29T06:20:34.935Z,99829.69
2022-11-29T06:23:08.517Z,99834.72
2022-11-29T06:26:02.328Z,99835.91
2022-11-29T06:28:48.862Z,99830.41
2022-11-29T06:31:18.773Z,99839.03
2022-11-29T06:34:09.339Z,99838.22
2022-11-29T06:36:38.637Z,99846.75
2022-11-29T06:39:05.648Z,99846.63
2022-11-29T06:41:32.467Z,99848.44
2022-11-29T06:43:59.455Z,99847.59
2022-11-29T06:46:48.352Z,99855.03
2022-11-29T06:49:29.166Z,99862.94
2022-11-29T06:52:20.425Z,99859.84
2022-11-29T06:54:47.385Z,99861.75
2022-11-29T06:57:17.300Z,99863.31
2022-11-29T07:00:16.748Z,99870.97
2022-11-29T07:02:50.440Z,99874.00
2022-11-29T07:05:31.741Z,99866.44
2022-11-29T07:08:03.651Z,99865.25
2022-11-29T07:10:33.587Z,99866.94
2022-11-29T07:13:00.560Z,99873.78
2022-11-29T07:15:28.153Z,99872.94
2022-11-29T07:18:02.314Z,99876.66
2022-11-29T07:20:45.427Z,99881.81
2022-11-29T07:23:45.086Z,99883.84
2022-11-29T07:26:19.971Z,99890.59
2022-11-29T07:29:01.375Z,99889.72
2022-11-29T07:31:35.374Z,99893.84
2022-11-29T07:34:12.715Z,99887.00
2022-11-29T07:37:11.868Z,99899.47
2022-11-29T07:39:41.553Z,99897.31
2022-11-29T07:42:26.957Z,99899.03
2022-11-29T07:45:11.791Z,99902.59
2022-11-29T07:47:38.648Z,99903.34
2022-11-29T07:50:06.007Z,99901.44
2022-11-29T07:52:33.445Z,99908.38
2022-11-29T07:55:00.272Z,99915.38
2022-11-29T07:57:27.014Z,99915.25
2022-11-29T07:59:53.781Z,99914.41
2022-11-29T08:02:30.846Z,99915.56
2022-11-29T08:04:58.012Z,99913.44
2022-11-29T08:07:24.878Z,99917.78
2022-11-29T08:09:51.657Z,99922.09
2022-11-29T08:12:18.532Z,99923.06
2022-11-29T08:14:45.573Z,99915.00
2022-11-29T08:17:12.535Z,99926.44
2022-11-29T08:19:39.276Z,99930.66
2022-11-29T08:22:06.139Z,99932.44
2022-11-29T08:24:32.870Z,99941.22
2022-11-29T08:26:59.604Z,99942.16
2022-11-29T08:29:26.422Z,99943.13
2022-11-29T08:31:53.981Z,99941.31
2022-11-29T08:34:22.359Z,99945.88
2022-11-29T08:36:50.047Z,99945.88
2022-11-29T08:39:17.120Z,99945.88
2022-11-29T08:41:43.886Z,99948.41
2022-11-29T08:44:10.582Z,99950.22
2022-11-29T08:46:55.933Z,99950.00
2022-11-29T08:49:22.689Z,99951.91
2022-11-29T08:51:52.216Z,99949.59
2022-11-29T08:54:18.991Z,99950.22
2022-11-29T08:59:32.593Z,99951.66
2022-11-29T09:01:59.490Z,99956.94
2022-11-29T09:04:26.438Z,99961.28
2022-11-29T09:06:53.148Z,99959.25
2022-11-29T09:09:19.862Z,99966.34
2022-11-29T09:11:49.371Z,99966.34
2022-11-29T09:14:17.009Z,99972.47
2022-11-29T09:16:43.752Z,99969.81
2022-11-29T09:19:10.634Z,99981.13
2022-11-29T09:21:37.357Z,99978.50
2022-11-29T09:24:06.472Z,99981.97
2022-11-29T09:26:36.075Z,99988.09
2022-11-29T09:29:04.462Z,99982.81
2022-11-29T09:31:32.450Z,99986.19
2022-11-29T09:33:59.258Z,99995.78
2022-11-29T09:36:28.717Z,99990.41
2022-11-29T09:38:56.189Z,99997.50
2022-11-29T09:41:43.007Z,99993.28
2022-11-29T09:44:22.612Z,99999.50
2022-11-29T09:47:08.407Z,99997.81
2022-11-29T09:50:12.865Z,99996.84
2022-11-29T09:52:57.385Z,100002.03
2022-11-29T09:55:50.187Z,100002.66
2022-11-29T09:58:20.904Z,100000.75
2022-11-29T10:00:51.659Z,100004.03
2022-11-29T10:03:28.874Z,100001.38
2022-11-29T10:06:04.864Z,100001.00
2022-11-29T10:08:36.306Z,100007.03
2022-11-29T10:11:14.812Z,100009.81
2022-11-29T10:13:45.736Z,100009.56
2022-11-29T10:16:22.529Z,100010.66
2022-11-29T10:18:58.933Z,100008.75
2022-11-29T10:21:29.770Z,100008.50
2022-11-29T10:23:59.820Z,100011.88
2022-11-29T10:26:32.039Z,100013.56
2022-11-29T10:29:01.705Z,100006.38
2022-11-29T10:31:42.864Z,100012.00
2022-11-29T10:34:17.955Z,100007.34
2022-11-29T10:36:47.428Z,100011.56
2022-11-29T10:39:21.121Z,100002.03
2022-11-29T10:41:52.253Z,100001.91
2022-11-29T10:44:20.321Z,100000.97
2022-11-29T10:46:47.012Z,99999.16
2022-11-29T10:49:17.090Z,100001.69
2022-11-29T10:51:45.036Z,100010.34
2022-11-29T10:54:27.219Z,100003.50
2022-11-29T10:56:56.715Z,100005.91
2022-11-29T10:59:28.253Z,100003.25
2022-11-29T11:01:55.142Z,100002.31
2022-11-29T11:04:27.949Z,99998.84
2022-11-29T11:06:59.897Z,100004.13
2022-11-29T11:09:34.780Z,99999.66
2022-11-29T11:12:04.785Z,100004.81
2022-11-29T11:14:37.614Z,100002.06
2022-11-29T11:17:26.202Z,99997.13
2022-11-29T11:20:01.159Z,100000.25
2022-11-29T11:22:28.870Z,99991.16
2022-11-29T11:25:01.075Z,99996.44
2022-11-29T11:27:40.091Z,99991.03
2022-11-29T11:30:21.963Z,99988.75
2022-11-29T11:33:08.321Z,99991.41
2022-11-29T11:35:37.177Z,99995.25
2022-11-29T11:38:03.949Z,99989.09
2022-11-29T11:40:31.245Z,99999.34
2022-11-29T11:42:59.855Z,100000.19
2022-11-29T11:45:36.685Z,99998.75
2022-11-29T11:48:12.313Z,100000.19
2022-11-29T11:51:05.523Z,100004.03
2022-11-29T11:53:36.343Z,100004.28
2022-11-29T11:56:06.544Z,100003.56
2022-11-29T11:58:54.489Z,100013.66
2022-11-29T12:01:28.928Z,100008.13
2022-11-29T12:04:04.724Z,100023.25
2022-11-29T12:06:37.578Z,100007.88
2022-11-29T12:09:28.573Z,100009.09
2022-11-29T12:12:20.360Z,100011.00
2022-11-29T12:14:58.330Z,100018.69
2022-11-29T12:17:31.238Z,100021.00
2022-11-29T12:20:04.603Z,100014.88
2022-11-29T12:22:41.513Z,100024.50
2022-11-29T12:25:16.022Z,100024.50
2022-11-29T12:27:42.873Z,100034.13
2022-11-29T12:30:15.605Z,100029.91
2022-11-29T12:32:44.949Z,100037.72
2022-11-29T12:35:23.603Z,100032.56
2022-11-29T12:38:08.281Z,100035.19
2022-11-29T12:41:03.473Z,100036.88
2022-11-29T12:43:45.542Z,100037.13
2022-11-29T12:46:23.548Z,100043.97
2022-11-29T12:49:12.049Z,100039.53
2022-11-29T12:51:54.925Z,100038.06
2022-11-29T12:54:43.183Z,100038.19
2022-11-29T12:57:14.692Z,100032.66
2022-11-29T12:59:47.610Z,100034.34
2022-11-29T13:02:24.427Z,100039.63
2022-11-29T13:05:12.927Z,100032.66
2022-11-29T13:07:59.262Z,100036.88
2022-11-29T13:10:37.430Z,100041.94
2022-11-29T13:13:41.837Z,100049.03
2022-11-29T13:16:31.034Z,100052.06
2022-11-29T13:19:25.237Z,100056.63
2022-11-29T13:21:57.941Z,100050.38
2022-11-29T13:24:32.730Z,100045.91
2022-11-29T13:27:03.174Z,100049.41
2022-11-29T13:29:30.107Z,100051.81
2022-11-29T13:31:57.817Z,100046.63
2022-11-29T13:34:30.334Z,100045.69
2022-11-29T13:37:20.899Z,100046.28
2022-11-29T13:40:06.621Z,100050.84
2022-11-29T13:42:59.958Z,100045.06
2022-11-29T13:45:42.819Z,100049.53
2022-11-29T13:48:28.278Z,100048.69
2022-11-29T13:50:56.078Z,100050.75
2022-11-29T13:53:30.820Z,100040.41
2022-11-29T13:56:02.046Z,100052.56
2022-11-29T13:58:28.731Z,100050.75
2022-11-29T14:01:14.427Z,100055.66
2022-11-29T14:03:42.712Z,100062.28
2022-11-29T14:06:13.505Z,100061.34
2022-11-29T14:09:17.677Z,100056.28
2022-11-29T14:11:49.599Z,100058.94
2022-11-29T14:14:16.245Z,100070.13
2022-11-29T14:16:42.999Z,100066.50
2022-11-29T14:19:13.019Z,100068.19
2022-11-29T14:22:07.271Z,100066.88
2022-11-29T14:24:36.830Z,100069.13
2022-11-29T14:27:06.314Z,100070.84
2022-11-29T14:29:53.611Z,100073.00
2022-11-29T14:32:46.364Z,100072.16
2022-11-29T14:35:14.995Z,100068.31
2022-11-29T14:38:06.434Z,100075.41
2022-11-29T14:40:42.129Z,100077.31
2022-11-29T14:43:27.328Z,100069.50
2022-11-29T14:46:16.000Z,100074.91
2022-11-29T14:48:56.763Z,100078.16
2022-11-29T14:51:25.412Z,100076.13
2022-11-29T14:54:05.216Z,100086.22
2022-11-29T14:56:31.981Z,100085.88
2022-11-29T14:59:36.122Z,100092.44
2022-11-29T15:02:07.505Z,100093.19
2022-11-29T15:04:35.852Z,100092.94
2022-11-29T15:07:03.195Z,100089.47
2022-11-29T15:09:32.561Z,100093.09
2022-11-29T15:12:02.626Z,100104.41
2022-11-29T15:14:48.078Z,100101.34
2022-11-29T15:17:27.022Z,100100.28
2022-11-29T15:20:30.861Z,100106.75
2022-11-29T15:22:59.713Z,100110.94
2022-11-29T15:25:33.624Z,100107.81
2022-11-29T15:28:05.887Z,100112.69
2022-11-29T15:30:42.037Z,100108.56
2022-11-29T15:33:24.897Z,100115.66
2022-11-29T15:35:57.157Z,100116.25
2022-11-29T15:38:24.477Z,100118.06
2022-11-29T15:40:53.443Z,100122.19
2022-11-29T15:43:23.667Z,100123.13
2022-11-29T15:45:55.458Z,100119.53
2022-11-29T15:48:27.126Z,100119.53
2022-11-29T15:50:56.745Z,100121.34
2022-11-29T15:53:44.749Z,100129.38
2022-11-29T15:56:35.855Z,100128.06
2022-11-29T15:59:09.259Z,100127.81
2022-11-29T16:01:37.588Z,100137.22
2022-11-29T16:04:04.462Z,100140.72
2022-11-29T16:06:34.421Z,100144.19
2022-11-29T16:09:01.574Z,100137.22
2022-11-29T16:11:31.044Z,100138.16
2022-11-29T16:14:11.858Z,100145.25
2022-11-29T16:16:40.244Z,100142.38
2022-11-29T16:19:34.392Z,100146.44
2022-11-29T16:22:09.877Z,100146.00
2022-11-29T16:24:40.961Z,100146.84
2022-11-29T16:27:08.140Z,100154.69
2022-11-29T16:29:37.774Z,100140.81
2022-11-29T16:32:14.977Z,100148.88
2022-11-29T16:34:43.089Z,100152.97
2022-11-29T16:37:25.105Z,100151.53
2022-11-29T16:39:55.562Z,100155.63
2022-11-29T16:42:28.159Z,100161.03
2022-11-29T16:45:00.216Z,100157.53
2022-11-29T16:47:29.793Z,100161.88
2022-11-29T16:50:21.061Z,100175.53
2022-11-29T16:52:52.009Z,100171.63
2022-11-29T16:55:21.972Z,100168.97
2022-11-29T16:57:48.926Z,100163.69
2022-11-29T17:00:25.541Z,100165.25
2022-11-29T17:02:52.294Z,100175.38
2022-11-29T17:05:19.194Z,100171.91
2022-11-29T17:07:46.211Z,100176.34
2022-11-29T17:10:17.844Z,100175.59
2022-11-29T17:12:48.198Z,100172.22
2022-11-29T17:15:16.667Z,100176.56
2022-11-29T17:17:46.062Z,100180.91
2022-11-29T17:20:14.036Z,100185.34
2022-11-29T17:22:41.292Z,100185.44
2022-11-29T17:25:08.510Z,100185.44
2022-11-29T17:27:35.726Z,100182.81
2022-11-29T17:30:03.475Z,100182.81
2022-11-29T17:32:31.080Z,100185.34
2022-11-29T17:34:57.794Z,100190.66
2022-11-29T17:37:24.433Z,100188.84
2022-11-29T17:39:51.460Z,100184.50
2022-11-29T17:42:18.279Z,100185.44
2022-11-29T17:44:44.931Z,100193.41
2022-11-29T17:47:11.572Z,100188.94
2022-11-29T17:49:38.218Z,100202.06
2022-11-29T17:52:05.286Z,100198.59
2022-11-29T17:54:35.948Z,100196.88
2022-11-29T17:57:04.424Z,100201.34
2022-11-29T17:59:31.088Z,100197.00
2022-11-29T18:01:57.736Z,100206.72
2022-11-29T18:04:24.408Z,100209.38
2022-11-29T18:06:51.118Z,100213.81
2022-11-29T18:09:18.527Z,100211.31
2022-11-29T18:11:49.008Z,100207.09
2022-11-29T18:14:22.825Z,100205.59
2022-11-29T18:16:50.084Z,100221.47
2022-11-29T18:19:19.004Z,100209.31
2022-11-29T18:21:46.146Z,100216.50
2022-11-29T18:24:12.938Z,100215.69
2022-11-29T18:26:40.155Z,100228.06
2022-11-29T18:29:07.408Z,100217.59
2022-11-29T18:31:36.291Z,100222.88
2022-11-29T18:34:09.829Z,100223.72
2022-11-29T18:36:39.562Z,100222.88
2022-11-29T18:39:08.948Z,100226.59
2022-11-29T18:41:36.039Z,100230.81
2022-11-29T18:44:08.286Z,100231.78
2022-11-29T18:46:37.349Z,100224.91
2022-11-29T18:49:06.561Z,100228.28
2022-11-29T18:51:34.173Z,100228.16
2022-11-29T18:54:01.353Z,100224.59
2022-11-29T18:56:30.574Z,100220.13
2022-11-29T18:58:59.877Z,100218.41
2022-11-29T19:01:28.605Z,100226.50
2022-11-29T19:03:57.728Z,100231.03
2022-11-29T19:06:39.318Z,100231.50
2022-11-29T19:09:11.124Z,100231.34
2022-11-29T19:11:37.857Z,100227.47
2022-11-29T19:14:06.444Z,100239.00
2022-11-29T19:16:34.514Z,100226.84
2022-11-29T19:19:01.556Z,100240.06
2022-11-29T19:21:31.653Z,100243.69
2022-11-29T19:24:00.104Z,100252.53
2022-11-29T19:26:28.086Z,100248.97
2022-11-29T19:28:55.113Z,100261.31
2022-11-29T19:31:24.988Z,100257.75
2022-11-29T19:33:52.577Z,100260.25
2022-11-29T19:36:30.532Z,100262.28
2022-11-29T19:38:59.573Z,100252.97
2022-11-29T19:41:28.673Z,100260.78
2022-11-29T19:44:00.109Z,100259.31
2022-11-29T19:46:29.607Z,100255.84
2022-11-29T19:48:57.357Z,100262.81
2022-11-29T19:51:25.093Z,100261.00
2022-11-29T19:53:53.430Z,100260.16
2022-11-29T19:56:20.807Z,100255.63
2022-11-29T19:58:48.821Z,100253.06
2022-11-29T20:01:25.014Z,100254.25
2022-11-29T20:03:52.543Z,100253.06
2022-11-29T20:06:19.447Z,100252.22
2022-11-29T20:08:46.235Z,100249.81
2022-11-29T20:11:16.267Z,100246.31
2022-11-29T20:13:44.504Z,100253.28
2022-11-29T20:16:15.904Z,100253.28
2022-11-29T20:18:50.356Z,100246.31
2022-11-29T20:21:29.156Z,100262.28
2022-11-29T20:23:56.945Z,100263.97
2022-11-29T20:26:24.058Z,100256.03
2022-11-29T20:28:50.884Z,100260.25
2022-11-29T20:31:21.230Z,100260.25
2022-11-29T20:33:51.233Z,100261.22
2022-11-29T20:36:55.404Z,100269.69
2022-11-29T20:39:42.446Z,100270.00
2022-11-29T20:42:37.380Z,100267.16
2022-11-29T20:45:10.682Z,100271.28
2022-11-29T20:47:55.918Z,100275.31
2022-11-29T20:50:28.115Z,100279.53
2022-11-29T20:53:15.494Z,100282.19
2022-11-29T20:55:48.108Z,100284.50
2022-11-29T20:58:16.160Z,100277.31
2022-11-29T21:00:43.331Z,100286.94
2022-11-29T21:03:14.507Z,100278.91
2022-11-29T21:05:41.959Z,100286.81
2022-11-29T21:08:08.817Z,100291.16
2022-11-29T21:10:35.887Z,100291.28
2022-11-29T21:13:05.220Z,100295.69
2022-11-29T21:15:35.449Z,100289.56
2022-11-29T21:18:02.707Z,100299.91
2022-11-29T21:20:29.772Z,100299.81
2022-11-29T21:23:07.002Z,100300.16
2022-11-29T21:25:54.360Z,100295.81
2022-11-29T21:28:25.099Z,100296.56
2022-11-29T21:30:52.124Z,100292.97
2022-11-29T21:33:19.111Z,100283.22
2022-11-29T21:35:45.871Z,100280.47
2022-11-29T21:38:22.577Z,100271.81
2022-11-29T21:40:49.360Z,100286.59
2022-11-29T21:43:16.084Z,100286.00
2022-11-29T21:45:42.940Z,100286.81
2022-11-29T21:48:29.639Z,100289.56
2022-11-29T21:50:56.621Z,100287.06
2022-11-29T21:53:23.739Z,100284.59
2022-11-29T21:55:56.326Z,100291.59
2022-11-29T21:58:23.080Z,100289.88
2022-11-29T22:00:49.802Z,100292.34
2022-11-29T22:03:17.044Z,100285.25
2022-11-29T22:05:43.784Z,100295.91
2022-11-29T22:08:10.585Z,100295.06
2022-11-29T22:10:37.380Z,100291.47
2022-11-29T22:13:04.226Z,100295.81
2022-11-29T22:15:32.011Z,100297.50
2022-11-29T22:17:59.108Z,100303.63
2022-11-29T22:20:25.873Z,100300.16
2022-11-29T22:22:58.439Z,100300.88
2022-11-29T22:25:25.487Z,100298.47
2022-11-29T22:27:52.234Z,100298.34
2022-11-29T22:30:19.736Z,100297.50
2022-11-29T22:32:46.613Z,100295.59
2022-11-29T22:35:13.337Z,100297.28
2022-11-29T22:37:40.088Z,100294.63
2022-11-29T22:40:07.321Z,100292.00
2022-11-29T22:42:34.182Z,100292.00
2022-11-29T22:45:02.146Z,100302.69
2022-11-29T22:47:28.899Z,100297.19
2022-11-29T22:49:55.725Z,100296.34
2022-11-29T22:52:22.458Z,100299.91
2022-11-29T22:54:49.380Z,100304.50
2022-11-29T22:57:16.321Z,100300.88
2022-11-29T22:59:43.166Z,100296.66
2022-11-29T23:02:09.946Z,100296.56
2022-11-29T23:04:36.708Z,100304.50
2022-11-29T23:07:03.520Z,100295.69
2022-11-29T23:09:30.163Z,100298.47
2022-11-29T23:11:57.177Z,100299.31
2022-11-29T23:14:23.966Z,100293.91
2022-11-29T23:16:50.926Z,100300.06
2022-11-29T23:19:17.880Z,100297.41
2022-11-29T23:21:45.905Z,100292.22
2022-11-29T23:24:14.196Z,100300.97
2022-11-29T23:26:44.108Z,100295.69
2022-11-29T23:29:14.137Z,100300.06
2022-11-29T23:31:41.016Z,100299.81
2022-11-29T23:34:08.286Z,100304.16
2022-11-29T23:36:35.199Z,100295.59
2022-11-29T23:39:04.422Z,100293.56
2022-11-29T23:41:31.233Z,100298.88
2022-11-29T23:43:59.652Z,100293.56
2022-11-29T23:46:26.711Z,100300.34
2022-11-29T23:48:53.411Z,100300.56
2022-11-29T23:51:20.472Z,100303.09
2022-11-29T23:53:52.258Z,100299.72
2022-11-29T23:56:19.977Z,100299.50
2022-11-29T23:58:47.285Z,100290.94
